Time;durP1;ratioP1;P1;durP2;ratioP2;P2;SDS_P1;SDS_P2;PMS_P1;PMS_P2;Temp;Humidity;BMP_temperature;BMP_pressure;BME280_temperature;BME280_humidity;BME280_pressure;Samples;Min_cycle;Max_cycle;Signal;HPM_P1;HPM_P2
2023/01/09 00:01:50;;;;;;;10.68;7.63;;;;;;;1.93;100.00;62201.44;5028932;28;20276;-78
2023/01/09 00:04:18;;;;;;;7.72;5.90;;;;;;;2.00;100.00;62205.59;5024498;28;20203;-78
2023/01/09 00:06:52;;;;;;;5.32;4.82;;;;;;;1.98;100.00;62204.06;5025404;28;20249;-77
2023/01/09 00:09:21;;;;;;;8.70;5.82;;;;;;;1.83;100.00;62190.66;5027786;28;20195;-80
2023/01/09 00:11:48;;;;;;;8.90;6.75;;;;;;;1.81;100.00;62186.59;5030002;28;20453;-79
2023/01/09 00:14:15;;;;;;;8.73;6.40;;;;;;;1.83;100.00;62188.16;5020545;28;20335;-80
2023/01/09 00:16:41;;;;;;;6.85;5.75;;;;;;;1.73;100.00;62183.41;5034176;28;20425;-78
2023/01/09 00:19:09;;;;;;;9.15;6.07;;;;;;;1.76;100.00;62183.47;5028352;28;20241;-79
2023/01/09 00:21:36;;;;;;;7.20;6.05;;;;;;;1.69;100.00;62179.28;5028396;28;20242;-78
2023/01/09 00:24:05;;;;;;;11.88;7.70;;;;;;;1.71;100.00;62178.34;5028113;28;20202;-79
2023/01/09 00:26:33;;;;;;;7.85;5.55;;;;;;;1.62;100.00;62172.13;5028990;28;20555;-79
2023/01/09 00:29:00;;;;;;;11.10;6.68;;;;;;;1.54;100.00;62161.41;5032175;28;20257;-80
2023/01/09 00:31:27;;;;;;;9.50;6.25;;;;;;;1.51;100.00;62155.81;5021598;28;20292;-79
2023/01/09 00:33:58;;;;;;;16.42;7.72;;;;;;;1.52;100.00;62156.34;5028188;28;20404;-79
2023/01/09 00:36:25;;;;;;;13.77;7.90;;;;;;;1.52;100.00;62156.84;5028016;28;20273;-79
2023/01/09 00:38:52;;;;;;;10.07;5.90;;;;;;;1.44;100.00;62153.66;5027861;28;20199;-79
2023/01/09 00:41:26;;;;;;;9.90;6.85;;;;;;;1.48;100.00;62149.72;5028038;28;20226;-79
2023/01/09 00:43:59;;;;;;;8.73;6.57;;;;;;;1.42;100.00;62149.09;5030279;28;20210;-79
2023/01/09 00:46:34;;;;;;;11.82;8.27;;;;;;;1.40;100.00;62146.53;5026964;28;20244;-78
2023/01/09 00:49:05;;;;;;;14.70;10.50;;;;;;;1.38;100.00;62144.47;5027496;28;20208;-79
2023/01/09 00:51:31;;;;;;;16.13;10.80;;;;;;;1.42;100.00;62141.56;5027049;28;20223;-79
2023/01/09 00:53:58;;;;;;;13.20;9.13;;;;;;;1.42;100.00;62146.56;5027992;28;20211;-79
2023/01/09 00:56:27;;;;;;;13.57;8.90;;;;;;;1.37;100.00;62141.44;5028246;28;20223;-78
2023/01/09 00:58:56;;;;;;;14.15;9.77;;;;;;;1.39;100.00;62145.50;5023138;28;20222;-78
2023/01/09 01:01:22;;;;;;;11.77;7.30;;;;;;;1.31;100.00;62140.31;5027312;28;20229;-78
2023/01/09 01:03:49;;;;;;;9.60;7.07;;;;;;;1.37;100.00;62145.94;5026715;28;20535;-80
2023/01/09 01:09:00;;;;;;;10.90;8.68;;;;;;;1.33;100.00;62136.84;5028483;28;20388;-78
2023/01/09 01:11:29;;;;;;;15.75;9.40;;;;;;;1.35;100.00;62138.88;5029929;28;20276;-78
2023/01/09 01:13:56;;;;;;;11.00;8.23;;;;;;;1.33;100.00;62139.84;5026898;28;20491;-78
2023/01/09 01:16:23;;;;;;;12.93;8.35;;;;;;;1.32;100.00;62135.78;5044143;28;20230;-79
2023/01/09 01:18:50;;;;;;;19.20;9.85;;;;;;;1.28;100.00;62132.22;5042361;28;20298;-78
2023/01/09 01:21:18;;;;;;;10.35;7.35;;;;;;;1.28;100.00;62136.72;5026734;28;20562;-79
2023/01/09 01:23:45;;;;;;;8.57;6.43;;;;;;;1.14;100.00;62115.34;5029410;28;20199;-79
2023/01/09 01:26:15;;;;;;;13.15;6.28;;;;;;;1.18;100.00;62122.47;5028652;28;20447;-78
2023/01/09 01:28:44;;;;;;;9.05;6.10;;;;;;;1.12;100.00;62113.28;5026905;28;20421;-78
2023/01/09 01:31:16;;;;;;;9.65;6.13;;;;;;;1.22;100.00;62130.56;5026707;28;20278;-78
2023/01/09 01:33:45;;;;;;;7.45;5.68;;;;;;;1.14;100.00;62118.34;5013908;28;20202;-79
2023/01/09 01:36:13;;;;;;;9.48;6.57;;;;;;;1.10;100.00;62114.25;5027290;28;20417;-78
2023/01/09 01:38:40;;;;;;;10.07;6.38;;;;;;;1.07;100.00;62108.16;5029648;28;20234;-79
2023/01/09 01:41:07;;;;;;;8.82;7.25;;;;;;;0.94;100.00;62095.34;5022869;28;20411;-79
2023/01/09 01:43:53;;;;;;;7.10;6.40;;;;;;;0.92;100.00;62095.28;5023354;28;20210;-79
2023/01/09 01:46:20;;;;;;;9.35;5.93;;;;;;;1.03;100.00;62104.06;5026358;28;20252;-78
2023/01/09 01:48:50;;;;;;;8.55;6.30;;;;;;;0.99;100.00;62104.97;5026517;28;20554;-78
2023/01/09 01:51:20;;;;;;;9.48;7.93;;;;;;;0.96;100.00;62097.41;5027247;28;20543;-79
2023/01/09 01:53:51;;;;;;;9.52;7.05;;;;;;;0.98;100.00;62103.94;5029698;28;20203;-78
2023/01/09 01:56:23;;;;;;;13.73;9.52;;;;;;;1.05;100.00;62108.63;5026477;28;20226;-77
2023/01/09 01:58:56;;;;;;;8.93;7.03;;;;;;;0.95;100.00;62103.38;5010157;28;20285;-78
2023/01/09 02:01:25;;;;;;;14.00;8.18;;;;;;;0.93;100.00;62098.81;5025121;28;20280;-80
2023/01/09 02:03:55;;;;;;;14.52;8.68;;;;;;;0.92;100.00;62095.78;5027395;28;20442;-79
2023/01/09 02:06:22;;;;;;;11.20;7.82;;;;;;;0.80;100.00;62083.50;5027847;28;20262;-78
2023/01/09 02:08:51;;;;;;;8.23;6.22;;;;;;;0.82;100.00;62088.03;5029446;28;20206;-79
2023/01/09 02:11:20;;;;;;;9.43;7.25;;;;;;;0.83;100.00;62086.03;5025414;28;20547;-78
2023/01/09 02:13:48;;;;;;;8.45;6.95;;;;;;;0.83;100.00;62093.56;5026241;28;20202;-80
2023/01/09 02:16:30;;;;;;;6.53;5.93;;;;;;;0.86;100.00;62087.13;5027544;28;20234;-78
2023/01/09 02:19:07;;;;;;;7.13;5.88;;;;;;;0.89;100.00;62092.72;5026267;28;20264;-78
2023/01/09 02:21:48;;;;;;;8.55;6.65;;;;;;;0.86;100.00;62089.63;5026244;28;20226;-79
2023/01/09 02:24:36;;;;;;;11.23;6.35;;;;;;;0.56;100.00;62058.34;5024068;28;20203;-78
2023/01/09 02:27:22;;;;;;;14.13;6.63;;;;;;;0.89;100.00;62092.72;5017684;28;20318;-78
2023/01/09 02:30:30;;;;;;;8.10;6.25;;;;;;;0.98;100.00;62106.94;5025074;28;20202;-77
2023/01/09 02:33:08;;;;;;;9.07;6.28;;;;;;;1.01;100.00;62104.50;5026408;28;20670;-78
2023/01/09 02:35:58;;;;;;;8.20;6.35;;;;;;;1.02;100.00;62103.53;5026513;28;20478;-80
2023/01/09 02:38:32;;;;;;;8.40;6.70;;;;;;;1.02;100.00;62103.53;5025667;28;20209;-78
2023/01/09 02:41:05;;;;;;;12.35;7.15;;;;;;;0.96;100.00;62099.38;5026625;28;20226;-79
2023/01/09 02:43:32;;;;;;;10.57;7.18;;;;;;;1.04;100.00;62108.09;5024432;28;20202;-77
2023/01/09 02:46:00;;;;;;;9.82;6.63;;;;;;;1.01;100.00;62104.50;5018175;28;20242;-77
2023/01/09 02:48:28;;;;;;;13.60;7.50;;;;;;;1.06;100.00;62112.16;5025830;28;20207;-79
2023/01/09 02:51:04;;;;;;;9.23;7.10;;;;;;;1.01;100.00;62105.03;5025196;28;20547;-78
2023/01/09 02:54:03;;;;;;;11.07;6.43;;;;;;;1.04;100.00;62108.09;5027104;28;20202;-76
2023/01/09 02:56:50;;;;;;;10.23;6.90;;;;;;;1.05;100.00;62108.63;4991053;28;20221;-78
2023/01/09 02:59:26;;;;;;;8.50;6.00;;;;;;;1.01;100.00;62102.00;5027515;28;20213;-78
2023/01/09 03:02:20;;;;;;;7.30;4.90;;;;;;;0.97;100.00;62103.44;5024432;28;20234;-78
2023/01/09 03:04:58;;;;;;;10.30;5.40;;;;;;;0.87;100.00;62095.16;5026046;28;20203;-79
2023/01/09 03:07:30;;;;;;;6.78;5.53;;;;;;;0.90;100.00;62093.75;5027612;28;20249;-78
2023/01/09 03:10:06;;;;;;;7.47;5.40;;;;;;;0.81;100.00;62089.50;5027120;28;20203;-78
2023/01/09 03:12:34;;;;;;;7.65;5.40;;;;;;;0.71;100.00;62076.75;5024521;28;20226;-78
2023/01/09 03:15:02;;;;;;;5.53;4.97;;;;;;;0.79;100.00;62081.94;5031345;28;20252;-78
2023/01/09 03:17:36;;;;;;;10.57;5.93;;;;;;;0.79;100.00;62082.47;5045434;28;20621;-78
2023/01/09 03:20:07;;;;;;;12.88;6.72;;;;;;;0.82;100.00;62082.53;5033229;28;20219;-77
2023/01/09 03:22:35;;;;;;;8.48;5.82;;;;;;;0.82;100.00;62085.03;5025139;28;20557;-78
2023/01/09 03:25:02;;;;;;;9.48;7.68;;;;;;;0.79;100.00;62079.97;5025420;28;20258;-77
2023/01/09 03:27:29;;;;;;;9.20;6.15;;;;;;;0.77;100.00;62079.91;5025346;28;20261;-78
2023/01/09 03:29:56;;;;;;;9.60;6.70;;;;;;;0.78;100.00;62083.41;5023846;28;20206;-77
2023/01/09 03:32:24;;;;;;;9.43;6.00;;;;;;;0.74;100.00;62074.31;5025674;28;20218;-77
2023/01/09 03:34:52;;;;;;;13.68;7.35;;;;;;;0.72;100.00;62082.81;5024854;28;20191;-78
2023/01/09 03:37:19;;;;;;;8.90;6.70;;;;;;;0.73;100.00;62081.31;5025464;28;20222;-78
2023/01/09 03:39:46;;;;;;;8.63;6.15;;;;;;;0.72;100.00;62072.78;5015630;28;20210;-78
2023/01/09 03:42:13;;;;;;;10.18;7.18;;;;;;;0.77;100.00;62085.44;5019720;28;20218;-77
2023/01/09 03:44:40;;;;;;;11.65;6.82;;;;;;;0.76;100.00;62079.38;5025063;28;20203;-78
2023/01/09 03:47:07;;;;;;;12.80;6.90;;;;;;;0.73;100.00;62076.31;5024253;28;20238;-78
2023/01/09 03:49:34;;;;;;;10.65;7.18;;;;;;;0.77;100.00;62080.41;5025368;28;20342;-77
2023/01/09 03:52:03;;;;;;;12.30;6.18;;;;;;;0.82;100.00;62085.53;5025039;28;20254;-77
2023/01/09 03:54:30;;;;;;;8.75;6.68;;;;;;;0.85;100.00;62091.13;5027849;28;20203;-77
2023/01/09 03:56:57;;;;;;;10.25;6.47;;;;;;;0.78;100.00;62081.44;5019590;28;20278;-78
2023/01/09 03:59:25;;;;;;;9.32;7.35;;;;;;;0.81;100.00;62084.00;5023136;28;20199;-78
2023/01/09 04:01:52;;;;;;;11.10;6.50;;;;;;;0.80;100.00;62082.97;5016621;28;20418;-78
2023/01/09 04:04:18;;;;;;;10.07;7.53;;;;;;;0.76;100.00;62079.38;5024615;28;20281;-78
2023/01/09 04:06:45;;;;;;;10.98;8.63;;;;;;;0.86;100.00;62087.13;5009322;28;20239;-78
2023/01/09 04:09:13;;;;;;;12.43;8.10;;;;;;;0.89;100.00;62089.69;5013537;28;20207;-77
2023/01/09 04:11:41;;;;;;;11.30;8.10;;;;;;;0.86;100.00;62091.63;5025304;28;20423;-80
2023/01/09 04:14:08;;;;;;;15.30;8.20;;;;;;;0.87;100.00;62088.16;5028513;28;20210;-79
2023/01/09 04:16:35;;;;;;;10.15;6.90;;;;;;;0.90;100.00;62090.72;5028349;28;20218;-80
2023/01/09 04:19:01;;;;;;;16.90;8.05;;;;;;;0.92;100.00;62095.28;5028513;28;20238;-78
2023/01/09 04:21:28;;;;;;;10.95;7.72;;;;;;;0.86;100.00;62089.13;5028366;28;20269;-78
2023/01/09 04:23:55;;;;;;;12.88;8.85;;;;;;;0.87;100.00;62090.66;5029370;28;20207;-78
2023/01/09 04:26:24;;;;;;;12.98;9.15;;;;;;;0.88;100.00;62096.19;5028435;28;20238;-80
2023/01/09 04:28:51;;;;;;;14.88;9.48;;;;;;;0.79;100.00;62084.97;5028132;28;20217;-78
2023/01/09 04:31:18;;;;;;;13.95;8.98;;;;;;;0.84;100.00;62087.06;5029661;28;20223;-78
2023/01/09 04:33:45;;;;;;;12.88;9.18;;;;;;;0.85;100.00;62088.63;5025916;28;20207;-77
2023/01/09 04:36:12;;;;;;;13.75;9.75;;;;;;;0.87;100.00;62092.66;5028483;28;20225;-77
2023/01/09 04:38:40;;;;;;;19.08;10.05;;;;;;;0.82;100.00;62083.03;5029124;28;20266;-78
2023/01/09 04:41:06;;;;;;;15.50;11.07;;;;;;;0.77;100.00;62079.91;5028845;28;20230;-76
2023/01/09 04:43:34;;;;;;;18.50;9.95;;;;;;;0.87;100.00;62088.16;5026309;28;20206;-78
2023/01/09 04:46:03;;;;;;;15.02;10.27;;;;;;;0.86;100.00;62089.13;5027589;28;20238;-78
2023/01/09 04:48:29;;;;;;;14.77;9.32;;;;;;;0.82;100.00;62085.03;5027894;28;20218;-78
2023/01/09 04:50:56;;;;;;;11.70;8.65;;;;;;;0.81;100.00;62084.00;5027495;28;20253;-78
2023/01/09 04:53:23;;;;;;;12.57;8.15;;;;;;;0.58;100.00;62060.41;5029592;28;20207;-77
2023/01/09 04:55:50;;;;;;;15.55;8.13;;;;;;;0.65;100.00;62068.13;5028393;28;20234;-77
2023/01/09 04:58:17;;;;;;;12.27;8.35;;;;;;;0.63;100.00;62071.06;5028409;28;20222;-77
2023/01/09 05:00:45;;;;;;;14.98;8.43;;;;;;;0.68;100.00;62073.69;5027445;28;20202;-78
2023/01/09 05:03:12;;;;;;;12.80;8.07;;;;;;;0.75;100.00;62078.38;5021176;28;20207;-78
2023/01/09 05:05:40;;;;;;;12.20;8.73;;;;;;;0.74;100.00;62077.31;5025989;28;20423;-78
2023/01/09 05:08:07;;;;;;;15.82;8.55;;;;;;;0.84;100.00;62087.59;5029049;28;20239;-79
2023/01/09 05:10:34;;;;;;;12.13;9.05;;;;;;;0.82;100.00;62085.53;5018703;28;20207;-79
2023/01/09 05:13:01;;;;;;;15.80;8.57;;;;;;;0.83;100.00;62091.56;5027420;28;20203;-78
2023/01/09 05:15:29;;;;;;;16.25;9.40;;;;;;;0.82;100.00;62085.03;5028711;28;20511;-78
2023/01/09 05:17:58;;;;;;;11.98;7.95;;;;;;;0.75;100.00;62080.88;5027234;28;20206;-78
2023/01/09 05:20:25;;;;;;;11.38;8.02;;;;;;;0.76;100.00;62083.88;5019286;28;20209;-78
2023/01/09 05:22:52;;;;;;;11.23;7.65;;;;;;;0.73;100.00;62075.78;5029754;28;20223;-77
2023/01/09 05:25:19;;;;;;;13.45;8.63;;;;;;;0.71;100.00;62071.75;5026821;28;20206;-79
2023/01/09 05:27:46;;;;;;;16.15;8.77;;;;;;;0.60;100.00;62064.97;5027610;28;20250;-79
2023/01/09 05:30:14;;;;;;;13.02;9.15;;;;;;;0.69;100.00;62071.69;5027369;28;20253;-78
2023/01/09 05:32:40;;;;;;;14.05;8.65;;;;;;;0.66;100.00;62076.66;5027862;28;20219;-78
2023/01/09 05:35:09;;;;;;;15.18;8.85;;;;;;;0.67;100.00;62072.66;5028211;28;20214;-78
2023/01/09 05:37:36;;;;;;;14.73;9.27;;;;;;;0.59;100.00;62064.44;5031737;28;20245;-79
2023/01/09 05:40:04;;;;;;;20.42;10.77;;;;;;;0.64;100.00;62069.56;5026547;28;20238;-78
2023/01/09 05:42:31;;;;;;;15.98;10.75;;;;;;;0.67;100.00;62072.16;5027668;28;20246;-78
2023/01/09 05:44:58;;;;;;;18.67;10.80;;;;;;;0.74;100.00;62077.31;5023024;28;20199;-78
2023/01/09 05:47:24;;;;;;;21.17;11.75;;;;;;;0.75;100.00;62080.88;5026308;28;20238;-78
2023/01/09 05:49:51;;;;;;;27.70;13.68;;;;;;;0.73;100.00;62078.81;5025712;28;20257;-78
2023/01/09 05:52:20;;;;;;;28.35;14.77;;;;;;;0.80;100.00;62083.50;5024161;28;20239;-78
2023/01/09 05:54:46;;;;;;;30.63;15.50;;;;;;;0.91;100.00;62092.28;5029125;28;20424;-78
2023/01/09 05:57:13;;;;;;;21.10;11.70;;;;;;;0.94;100.00;62100.34;5027137;28;20226;-78
2023/01/09 05:59:40;;;;;;;18.35;12.07;;;;;;;0.91;100.00;62099.78;5027857;28;20203;-78
2023/01/09 06:02:07;;;;;;;22.80;11.85;;;;;;;0.93;100.00;62101.81;5026343;28;20226;-77
2023/01/09 06:04:34;;;;;;;18.33;10.70;;;;;;;0.89;100.00;62090.22;5023165;28;20249;-78
2023/01/09 06:07:01;;;;;;;16.98;10.45;;;;;;;0.90;100.00;62093.22;5026314;28;20432;-78
2023/01/09 06:09:30;;;;;;;16.77;10.55;;;;;;;0.88;100.00;62091.69;5027032;28;20214;-78
2023/01/09 06:11:57;;;;;;;13.73;9.68;;;;;;;0.90;100.00;62093.75;5029348;28;20230;-78
2023/01/09 06:14:24;;;;;;;17.27;10.77;;;;;;;0.98;100.00;62101.44;5026582;28;20203;-79
2023/01/09 06:16:52;;;;;;;16.02;10.43;;;;;;;0.97;100.00;62100.41;5027078;28;20420;-78
2023/01/09 06:19:18;;;;;;;16.80;10.63;;;;;;;0.97;100.00;62102.91;5026491;28;20206;-79
2023/01/09 06:21:45;;;;;;;16.55;11.05;;;;;;;1.03;100.00;62106.56;5026594;28;20237;-78
2023/01/09 06:24:13;;;;;;;20.40;11.20;;;;;;;1.12;100.00;62116.31;5025805;28;20226;-78
2023/01/09 06:26:41;;;;;;;17.83;11.38;;;;;;;1.10;100.00;62113.75;5029779;28;20285;-80
2023/01/09 06:29:08;;;;;;;15.52;11.35;;;;;;;1.10;100.00;62116.25;5026561;28;20233;-78
2023/01/09 06:31:36;;;;;;;16.05;10.50;;;;;;;1.10;100.00;62114.25;5027653;28;20231;-78
2023/01/09 06:34:02;;;;;;;17.42;11.05;;;;;;;1.19;100.00;62123.50;5026504;28;20241;-78
2023/01/09 06:36:29;;;;;;;16.63;10.73;;;;;;;1.25;100.00;62126.63;5025493;28;20269;-78
2023/01/09 06:38:56;;;;;;;16.30;10.75;;;;;;;1.30;100.00;62134.25;5026253;28;20221;-79
2023/01/09 06:41:23;;;;;;;16.17;11.30;;;;;;;1.38;100.00;62141.97;5025955;28;20222;-79
2023/01/09 06:43:52;;;;;;;18.48;12.27;;;;;;;1.45;100.00;62147.13;5030566;28;20229;-79
2023/01/09 06:46:19;;;;;;;16.20;11.10;;;;;;;1.51;100.00;62157.81;5030292;28;20289;-79
2023/01/09 06:48:46;;;;;;;19.42;12.13;;;;;;;1.50;100.00;62154.78;5026143;28;20250;-79
2023/01/09 06:51:12;;;;;;;22.80;12.05;;;;;;;1.53;100.00;62155.38;5026272;28;20222;-79
2023/01/09 06:53:39;;;;;;;19.30;12.40;;;;;;;1.58;100.00;62168.03;5025754;28;20206;-77
2023/01/09 06:56:07;;;;;;;18.73;11.52;;;;;;;1.64;100.00;62169.16;5025873;28;20229;-79
2023/01/09 06:58:34;;;;;;;16.08;11.60;;;;;;;1.67;100.00;62171.72;5027982;28;20262;-79
2023/01/09 07:01:02;;;;;;;22.30;12.07;;;;;;;1.71;100.00;62176.34;5026482;28;20535;-79
2023/01/09 07:03:29;;;;;;;18.83;11.10;;;;;;;1.74;100.00;62179.44;5024154;28;20246;-78
2023/01/09 07:05:56;;;;;;;21.55;11.85;;;;;;;1.81;100.00;62186.59;5026656;28;20325;-79
2023/01/09 07:08:23;;;;;;;18.25;10.82;;;;;;;1.88;100.00;62198.81;5029795;28;20244;-78
2023/01/09 07:10:50;;;;;;;21.80;12.65;;;;;;;1.96;100.00;62204.00;5036282;28;20222;-79
2023/01/09 07:13:19;;;;;;;25.75;14.73;;;;;;;2.10;100.00;62213.88;5042361;28;20225;-79
2023/01/09 07:15:48;;;;;;;20.85;14.30;;;;;;;2.29;100.00;62238.41;5048495;28;20225;-79
2023/01/09 07:18:24;;;;;;;23.02;15.05;;;;;;;2.60;100.00;62269.22;5027230;28;20195;-79
2023/01/09 07:20:52;;;;;;;31.27;18.42;;;;;;;2.81;100.00;62290.81;5035954;28;20222;-78
2023/01/09 07:23:19;;;;;;;40.60;20.08;;;;;;;3.11;100.00;62319.63;5036921;28;20211;-78
2023/01/09 07:25:52;;;;;;;36.78;19.55;;;;;;;3.35;100.00;62346.28;5017053;28;20248;-78
2023/01/09 07:28:21;;;;;;;25.27;15.60;;;;;;;3.67;100.00;62379.22;5049912;28;20249;-79
2023/01/09 07:30:48;;;;;;;25.95;15.07;;;;;;;3.73;100.00;62387.91;5036110;28;20226;-79
2023/01/09 07:33:14;;;;;;;28.20;15.60;;;;;;;4.03;100.00;62413.72;5040750;28;20491;-79
2023/01/09 07:35:43;;;;;;;23.42;14.68;;;;;;;4.10;100.00;62420.41;5024849;28;20225;-78
2023/01/09 07:38:10;;;;;;;19.15;13.60;;;;;;;4.00;100.00;62413.16;5027284;28;20203;-78
2023/01/09 07:40:37;;;;;;;23.02;13.55;;;;;;;3.83;100.00;62395.66;5029782;28;20241;-78
2023/01/09 07:43:04;;;;;;;21.88;13.00;;;;;;;3.86;100.00;62398.75;5029335;28;20252;-79
2023/01/09 07:45:31;;;;;;;18.08;12.65;;;;;;;3.82;100.00;62389.09;5024828;28;20203;-78
2023/01/09 07:47:58;;;;;;;19.48;12.15;;;;;;;3.82;100.00;62392.13;5028329;28;20246;-79
2023/01/09 07:50:25;;;;;;;21.02;12.77;;;;;;;3.78;100.00;62387.50;5028310;28;20225;-79
2023/01/09 07:52:53;;;;;;;21.75;14.13;;;;;;;3.79;100.00;62394.06;5030303;28;20270;-79
2023/01/09 07:55:20;;;;;;;19.38;13.43;;;;;;;3.79;100.00;62386.00;5034347;28;20199;-78
2023/01/09 07:57:49;;;;;;;22.85;13.57;;;;;;;3.66;100.00;62375.16;5028101;28;20284;-78
2023/01/09 08:00:17;;;;;;;18.85;12.02;;;;;;;3.62;100.00;62376.06;5028358;28;20202;-81
2023/01/09 08:02:44;;;;;;;21.13;12.32;;;;;;;3.62;100.00;62373.56;5028849;28;20294;-80
2023/01/09 08:05:13;;;;;;;21.38;12.20;;;;;;;3.58;100.00;62364.91;5028451;28;20226;-78
2023/01/09 08:07:45;;;;;;;20.95;13.20;;;;;;;3.39;100.00;62350.94;5031498;28;20242;-79
2023/01/09 08:10:13;;;;;;;22.42;13.57;;;;;;;3.48;100.00;62357.69;5031844;28;20210;-79
2023/01/09 08:12:43;;;;;;;22.17;12.43;;;;;;;3.61;100.00;62370.53;5027210;28;20522;-78
2023/01/09 08:15:11;;;;;;;24.33;12.60;;;;;;;3.63;100.00;62372.06;5029556;28;20539;-77
2023/01/09 08:17:38;;;;;;;22.23;13.23;;;;;;;3.68;100.00;62380.22;5037331;28;20229;-78
2023/01/09 08:20:06;;;;;;;21.85;12.85;;;;;;;3.80;100.00;62392.56;5029300;28;20202;-78
2023/01/09 08:22:33;;;;;;;23.42;14.52;;;;;;;3.95;100.00;62410.03;5027868;28;20302;-78
2023/01/09 08:25:01;;;;;;;17.73;12.85;;;;;;;4.09;100.00;62416.88;5029252;28;20213;-78
2023/01/09 08:27:29;;;;;;;24.90;13.80;;;;;;;4.44;100.00;62457.91;5026329;28;20270;-78
2023/01/09 08:29:57;;;;;;;21.77;13.25;;;;;;;4.53;100.00;62467.19;5028897;28;20210;-79
2023/01/09 08:32:24;;;;;;;19.20;13.13;;;;;;;4.45;100.00;62458.94;5033370;28;20234;-79
2023/01/09 08:34:51;;;;;;;20.25;12.70;;;;;;;4.69;100.00;62486.19;5028085;28;20226;-79
2023/01/09 08:37:18;;;;;;;20.20;13.63;;;;;;;4.81;100.00;62495.50;5029082;28;20215;-79
2023/01/09 08:39:45;;;;;;;20.63;12.73;;;;;;;4.87;100.00;62501.69;5029126;28;20458;-79
2023/01/09 08:47:43;;;;;;;18.92;13.38;;;;;;;4.94;97.58;62506.34;5030953;28;20433;-78
2023/01/09 08:50:12;;;;;;;20.02;13.32;;;;;;;5.02;98.08;62517.13;5029673;28;20209;-78
2023/01/09 08:52:38;;;;;;;20.50;12.77;;;;;;;4.94;98.04;62509.38;5027456;28;20272;-79
2023/01/09 08:55:08;;;;;;;22.02;14.00;;;;;;;4.97;97.73;62514.50;5033802;28;20209;-77
2023/01/09 08:57:36;;;;;;;24.90;13.98;;;;;;;4.88;98.61;62502.69;5036260;28;20245;-80
2023/01/09 09:00:05;;;;;;;25.35;15.43;;;;;;;5.11;99.17;62524.38;5029485;28;20226;-79
2023/01/09 09:02:33;;;;;;;25.45;16.17;;;;;;;5.01;98.86;62516.06;5039088;28;20222;-76
2023/01/09 09:05:00;;;;;;;26.55;17.75;;;;;;;5.11;100.00;62518.81;5031344;28;20238;-79
2023/01/09 09:07:27;;;;;;;27.25;17.90;;;;;;;5.26;100.00;62541.84;5028231;28;20364;-79
2023/01/09 09:09:54;;;;;;;29.98;16.75;;;;;;;5.48;100.00;62561.97;5027842;28;20262;-78
2023/01/09 09:12:21;;;;;;;31.02;17.90;;;;;;;5.62;99.84;62576.91;5028495;28;20257;-79
2023/01/09 09:17:50;;;;;;;33.25;18.67;;;;;;;5.33;96.90;62549.53;4980034;28;20231;-79
2023/01/09 09:20:17;;;;;;;31.13;18.63;;;;;;;5.16;98.54;62532.03;4986113;28;20275;-78
2023/01/09 09:22:46;;;;;;;26.95;17.42;;;;;;;5.17;98.91;62535.59;4989013;28;20293;-78
2023/01/09 09:25:14;;;;;;;27.25;17.83;;;;;;;5.28;99.34;62546.91;5037343;28;20235;-79
2023/01/09 09:27:42;;;;;;;27.52;18.50;;;;;;;5.07;98.38;62520.25;5031815;28;20302;-79
2023/01/09 09:30:11;;;;;;;28.67;17.52;;;;;;;5.40;99.04;62556.25;5033285;28;20202;-81
2023/01/09 09:32:39;;;;;;;29.73;16.80;;;;;;;5.51;97.37;62565.56;5028566;28;20558;-78
2023/01/09 09:35:10;;;;;;;25.02;15.68;;;;;;;5.54;97.23;62573.72;5031098;28;20267;-78
2023/01/09 09:37:37;;;;;;;32.28;18.20;;;;;;;5.77;97.29;62597.41;5037238;28;20225;-79
2023/01/09 09:40:06;;;;;;;23.52;16.15;;;;;;;5.97;96.28;62609.94;5031253;28;20226;-80
2023/01/09 09:45:57;;;;;;;26.48;17.23;;;;;;;6.18;93.54;62636.66;5018295;28;20362;-78
2023/01/09 09:48:37;;;;;;;32.90;18.67;;;;;;;6.07;92.66;62624.78;5027995;28;20286;-78
2023/01/09 09:51:35;;;;;;;26.48;16.60;;;;;;;6.23;92.29;62641.78;5028331;28;20226;-79
2023/01/09 09:54:08;;;;;;;26.65;15.98;;;;;;;6.33;91.16;62652.13;5028216;28;20202;-79
2023/01/09 09:56:41;;;;;;;27.95;16.45;;;;;;;6.23;89.76;62641.28;5031774;28;20230;-79
2023/01/09 09:59:15;;;;;;;30.15;18.52;;;;;;;6.36;90.56;62649.63;5027401;28;20209;-79
2023/01/09 10:01:47;;;;;;;29.35;17.48;;;;;;;6.66;90.64;62686.13;5028342;28;20586;-79
2023/01/09 10:04:18;;;;;;;27.27;15.38;;;;;;;6.95;88.76;62710.47;5016146;28;20194;-81
2023/01/09 10:06:51;;;;;;;23.05;15.65;;;;;;;7.04;86.13;62722.28;5029204;28;20219;-78
2023/01/09 10:09:28;;;;;;;19.70;14.43;;;;;;;7.14;86.40;62737.69;5028312;28;20575;-79
2023/01/09 10:11:59;;;;;;;23.77;15.10;;;;;;;7.25;85.49;62745.97;5029034;28;20282;-78
2023/01/09 10:14:27;;;;;;;26.77;15.68;;;;;;;6.91;85.85;62714.47;5028253;28;20210;-80
2023/01/09 10:17:21;;;;;;;24.42;15.77;;;;;;;7.07;88.01;62729.94;5042655;28;20231;-79
2023/01/09 10:20:18;;;;;;;28.10;16.77;;;;;;;6.89;87.91;62704.81;5026314;28;20207;-77
2023/01/09 10:22:59;;;;;;;30.23;16.77;;;;;;;6.90;88.94;62707.84;5045421;28;20225;-79
2023/01/09 10:25:34;;;;;;;25.60;16.17;;;;;;;7.18;88.38;62736.22;5035745;28;20265;-79
2023/01/09 10:28:19;;;;;;;25.67;15.30;;;;;;;7.35;86.30;62756.81;5029782;28;20222;-79
2023/01/09 10:30:50;;;;;;;26.58;14.85;;;;;;;7.44;85.69;62763.56;5036075;28;20214;-78
2023/01/09 10:33:44;;;;;;;26.42;15.23;;;;;;;7.46;85.53;62768.16;5026804;28;20206;-77
2023/01/09 10:36:32;;;;;;;26.45;14.30;;;;;;;7.44;84.87;62766.09;5033590;28;20529;-78
2023/01/09 10:39:06;;;;;;;23.98;15.05;;;;;;;7.08;86.88;62728.94;5031581;28;20205;-79
2023/01/09 10:41:39;;;;;;;29.98;17.20;;;;;;;6.83;87.58;62700.63;5021630;28;20226;-78
2023/01/09 10:44:15;;;;;;;32.10;16.55;;;;;;;6.79;90.43;62694.50;5039706;28;20202;-78
2023/01/09 10:46:47;;;;;;;22.23;14.70;;;;;;;7.15;89.03;62733.63;5025529;28;20226;-77
2023/01/09 10:49:17;;;;;;;30.30;17.85;;;;;;;6.96;88.79;62714.03;5027792;28;20238;-79
2023/01/09 10:51:48;;;;;;;34.10;18.02;;;;;;;6.85;91.11;62703.19;5006273;28;20540;-78
2023/01/09 10:54:20;;;;;;;33.97;18.15;;;;;;;7.11;90.03;62729.50;5007711;28;20210;-77
2023/01/09 10:57:02;;;;;;;29.80;16.88;;;;;;;7.03;90.55;62719.25;5021584;28;20227;-78
2023/01/09 10:59:29;;;;;;;32.95;18.77;;;;;;;7.28;89.51;62752.13;5026223;28;20518;-78
2023/01/09 11:01:56;;;;;;;29.83;16.30;;;;;;;7.61;87.60;62783.13;5027155;28;20237;-79
2023/01/09 11:04:27;;;;;;;31.88;18.45;;;;;;;7.82;86.74;62805.31;5030230;28;20194;-78
2023/01/09 11:06:58;;;;;;;30.33;17.90;;;;;;;7.74;84.89;62799.59;5026713;28;20222;-78
2023/01/09 11:09:27;;;;;;;26.42;16.58;;;;;;;7.77;84.93;62797.09;5029885;28;20246;-78
2023/01/09 11:11:53;;;;;;;23.33;15.63;;;;;;;8.13;84.81;62834.81;5026822;28;20229;-79
2023/01/09 11:14:26;;;;;;;24.73;15.32;;;;;;;8.15;81.62;62838.88;5027278;28;20221;-78
2023/01/09 11:16:54;;;;;;;25.75;16.10;;;;;;;8.42;81.77;62863.75;5022923;28;20226;-77
2023/01/09 11:19:22;;;;;;;20.80;14.05;;;;;;;8.55;80.41;62879.69;5028514;28;20209;-78
2023/01/09 11:21:50;;;;;;;16.77;11.82;;;;;;;8.88;78.97;62913.81;5028244;28;20234;-79
2023/01/09 11:24:31;;;;;;;22.23;13.10;;;;;;;8.77;77.62;62902.94;5028317;28;20217;-78
2023/01/09 11:27:26;;;;;;;22.15;13.80;;;;;;;8.95;77.59;62921.03;5025935;28;20277;-77
2023/01/09 11:30:25;;;;;;;20.98;11.20;;;;;;;9.16;75.53;62945.78;5026241;28;20238;-78
2023/01/09 11:32:52;;;;;;;17.10;11.10;;;;;;;8.99;74.74;62922.66;4962556;28;20215;-77
2023/01/09 11:35:29;;;;;;;20.88;11.95;;;;;;;8.96;75.56;62919.53;5006644;28;20365;-78
2023/01/09 11:38:06;;;;;;;20.35;12.07;;;;;;;8.47;78.39;62869.44;5005294;28;20442;-77
2023/01/09 11:40:45;;;;;;;17.48;10.98;;;;;;;8.45;78.43;62869.38;5012745;28;20217;-77
2023/01/09 11:43:20;;;;;;;19.00;12.30;;;;;;;8.68;78.26;62893.66;5024958;28;20191;-78
2023/01/09 11:45:51;;;;;;;18.63;12.05;;;;;;;8.68;77.38;62890.59;5025948;28;20276;-77
2023/01/09 11:48:31;;;;;;;19.42;11.80;;;;;;;8.11;78.94;62832.72;5026220;28;20253;-78
2023/01/09 11:50:59;;;;;;;17.40;10.50;;;;;;;8.54;78.43;62874.09;5027557;28;20226;-77
2023/01/09 11:53:27;;;;;;;25.05;12.98;;;;;;;8.09;79.67;62830.66;5026246;28;20265;-77